Sy Vela — V4EK3 — position and weather

sailwx.info

Track history (hours):
 
Tides and Currents Weather Stations Pressure Air Temp Water Temp Dewpoint Dewpoint Depression Visibility Wind Speed Wind Dir Waves Ship Positions

Sy Vela

Last reported at 2017-Dec-17 12:35 UTC. Time now 2017-Dec-18 01:27 UTC.
Position N 14°37' W 061°10'.

Length 31 m; draft 4 m.

Type: Passenger vessel. MMSI: 341799000.

Date/timePositionNaut miles runAvg speedWind from/ knotsBaromVisibWave heightAir tempDewpointWater temp
2017-Dec-17 12:35N 14°37' W 061°10'1 9.3
2017-Dec-17 12:30N 14°36' W 061°10'5 8.6
2017-Dec-17 11:52N 14°31' W 061°07'3 8.8
2017-Dec-17 11:30N 14°28' W 061°06'4 8.7
2017-Dec-17 11:00N 14°24' W 061°05'4 8.3
2017-Dec-17 10:30N 14°20' W 061°03'4 9.0
2017-Dec-17 10:00N 14°16' W 061°01'4 8.5
2017-Dec-17 09:30N 14°12' W 061°00'4 8.1
2017-Dec-17 09:00N 14°08' W 060°59'3 5.9
2017-Dec-17 08:29N 14°05' W 060°58'0 0.1
2017-Dec-17 08:00N 14°05' W 060°58'0 0.0
2017-Dec-17 07:26N 14°05' W 060°58'1 1.2
2017-Dec-17 07:00N 14°05' W 060°58'0 0.0
2017-Dec-17 06:30N 14°05' W 060°58'0 0.0
2017-Dec-17 05:59N 14°05' W 060°58'0 0.0
2017-Dec-17 05:30N 14°05' W 060°58'0 0.0
2017-Dec-17 05:00N 14°05' W 060°58'1 1.1
2017-Dec-17 04:30N 14°05' W 060°58'1 1.1
2017-Dec-17 04:00N 14°05' W 060°58'1 1.1
2017-Dec-17 03:30N 14°05' W 060°58'0 0.0
2017-Dec-17 03:00N 14°05' W 060°58'0 0.0
2017-Dec-17 02:30N 14°05' W 060°58'0 0.0
2017-Dec-17 01:58N 14°05' W 060°58'1 1.2
2017-Dec-17 01:30N 14°05' W 060°58'0 0.0
2017-Dec-17 00:58N 14°05' W 060°58'0 0.0
2017-Dec-17 00:30N 14°05' W 060°58'1 0.9
2017-Dec-16 23:53N 14°05' W 060°58'0 0.0
2017-Dec-16 23:27N 14°05' W 060°58'1 1.2
2017-Dec-16 22:59N 14°05' W 060°58'  
2017-Dec-11 08:56N 14°05' W 060°58'0 0.0
2017-Dec-11 08:29N 14°05' W 060°58'0 0.0
2017-Dec-11 04:40N 14°05' W 060°58'0 0.4
2017-Dec-11 04:29N 14°05' W 060°58'0 0.0
2017-Dec-11 04:00N 14°05' W 060°58'0 0.1
2017-Dec-11 03:25N 14°05' W 060°58'0 0.0
2017-Dec-11 02:50N 14°05' W 060°58'0 0.2
2017-Dec-11 02:29N 14°05' W 060°58'0 0.0
2017-Dec-11 02:00N 14°05' W 060°58'0 0.0
2017-Dec-11 01:28N 14°05' W 060°58'0 0.0
2017-Dec-11 01:00N 14°05' W 060°58'0 0.2
2017-Dec-11 00:30N 14°05' W 060°58'0 0.1
2017-Dec-10 23:47N 14°05' W 060°58'0 0.0
2017-Dec-10 23:29N 14°05' W 060°58'0 0.2
2017-Dec-10 23:00N 14°05' W 060°58'0 0.0
2017-Dec-10 22:30N 14°05' W 060°58'0 0.0
2017-Dec-10 21:01N 14°05' W 060°58'0 0.0
2017-Dec-10 20:58N 14°05' W 060°58'  
Track history (hours):
 
Tides and Currents Weather Stations Pressure Air Temp Water Temp Dewpoint Dewpoint Depression Visibility Wind Speed Wind Dir Waves Ship Positions

Sy Vela

Last reported at 2017-Dec-17 12:35 UTC. Time now 2017-Dec-18 01:27 UTC.
Position N 14°37' W 061°10'.

Length 31 m; draft 4 m.

Type: Passenger vessel. MMSI: 341799000.

Date/timePositionNaut miles runAvg speedWind from/ knotsBaromVisibWave heightAir tempDewpointWater temp
2017-Dec-17 12:35N 14°37' W 061°10'1 9.3
2017-Dec-17 12:30N 14°36' W 061°10'5 8.6
2017-Dec-17 11:52N 14°31' W 061°07'3 8.8
2017-Dec-17 11:30N 14°28' W 061°06'4 8.7
2017-Dec-17 11:00N 14°24' W 061°05'4 8.3
2017-Dec-17 10:30N 14°20' W 061°03'4 9.0
2017-Dec-17 10:00N 14°16' W 061°01'4 8.5
2017-Dec-17 09:30N 14°12' W 061°00'4 8.1
2017-Dec-17 09:00N 14°08' W 060°59'3 5.9
2017-Dec-17 08:29N 14°05' W 060°58'0 0.1
2017-Dec-17 08:00N 14°05' W 060°58'0 0.0
2017-Dec-17 07:26N 14°05' W 060°58'1 1.2
2017-Dec-17 07:00N 14°05' W 060°58'0 0.0
2017-Dec-17 06:30N 14°05' W 060°58'0 0.0
2017-Dec-17 05:59N 14°05' W 060°58'0 0.0
2017-Dec-17 05:30N 14°05' W 060°58'0 0.0
2017-Dec-17 05:00N 14°05' W 060°58'1 1.1
2017-Dec-17 04:30N 14°05' W 060°58'1 1.1
2017-Dec-17 04:00N 14°05' W 060°58'1 1.1
2017-Dec-17 03:30N 14°05' W 060°58'0 0.0
2017-Dec-17 03:00N 14°05' W 060°58'0 0.0
2017-Dec-17 02:30N 14°05' W 060°58'0 0.0
2017-Dec-17 01:58N 14°05' W 060°58'1 1.2
2017-Dec-17 01:30N 14°05' W 060°58'0 0.0
2017-Dec-17 00:58N 14°05' W 060°58'0 0.0
2017-Dec-17 00:30N 14°05' W 060°58'1 0.9
2017-Dec-16 23:53N 14°05' W 060°58'0 0.0
2017-Dec-16 23:27N 14°05' W 060°58'1 1.2
2017-Dec-16 22:59N 14°05' W 060°58'  
2017-Dec-11 08:56N 14°05' W 060°58'0 0.0
2017-Dec-11 08:29N 14°05' W 060°58'0 0.0
2017-Dec-11 04:40N 14°05' W 060°58'0 0.4
2017-Dec-11 04:29N 14°05' W 060°58'0 0.0
2017-Dec-11 04:00N 14°05' W 060°58'0 0.1
2017-Dec-11 03:25N 14°05' W 060°58'0 0.0
2017-Dec-11 02:50N 14°05' W 060°58'0 0.2
2017-Dec-11 02:29N 14°05' W 060°58'0 0.0
2017-Dec-11 02:00N 14°05' W 060°58'0 0.0
2017-Dec-11 01:28N 14°05' W 060°58'0 0.0
2017-Dec-11 01:00N 14°05' W 060°58'0 0.2
2017-Dec-11 00:30N 14°05' W 060°58'0 0.1
2017-Dec-10 23:47N 14°05' W 060°58'0 0.0
2017-Dec-10 23:29N 14°05' W 060°58'0 0.2
2017-Dec-10 23:00N 14°05' W 060°58'0 0.0
2017-Dec-10 22:30N 14°05' W 060°58'0 0.0
2017-Dec-10 21:01N 14°05' W 060°58'0 0.0
2017-Dec-10 20:58N 14°05' W 060°58'  

Dump ship's entire track history